Terminal Aerodrome Forecast
Issued by NWS Buffalo, NY

Current Version | Previous Version | Text Only | Print | Product List | Glossary On
Versions: 1 2 3 4 5 6 7 8 9 10 11 12 13 14 15 16 17 18 19 20 21 22 23 24 25 26 27 28
000
FTUS41 KBUF 232333
TAFROC
TAF
KROC 232333Z 2400/2424 22014G20KT P6SM OVC012
     FM240800 28010KT P6SM OVC012
     FM241500 31008KT P6SM BKN020
     FM241700 33008KT P6SM BKN030
     FM242100 02005KT P6SM BKN045=

USA.gov is the U.S. government's official web portal to all federal, state and local government web resources and services.